Terminal Aerodrome Forecast
Issued by NWS Portland, ME

Home | Current Version | Previous Version | Text Only | Print | Product List | Glossary On
Versions: 1 2 3 4 5 6 7 8 9 10 11 12 13 14 15 16 17 18 19 20 21 22 23 24 25
000
FTUS41 KGYX 102331
TAFPWM
TAF
KPWM 102331Z 1100/1124 20005KT P6SM OVC050
     FM110400 27005KT P6SM SCT050 BKN100
     FM111300 30007KT P6SM BKN045
     FM111900 30012G23KT P6SM -SHSN BKN035=

USA.gov is the U.S. government's official web portal to all federal, state and local government web resources and services.